sensor_id;sensor_type;location;lat;lon;timestamp;P1;durP1;ratioP1;P2;durP2;ratioP2
6197;SDS011;3132;42.622;23.328;2022-10-17T00:02:23;12.10;;;11.10;;
6197;SDS011;3132;42.622;23.328;2022-10-17T00:04:48;12.53;;;11.63;;
6197;SDS011;3132;42.622;23.328;2022-10-17T00:07:14;13.03;;;12.13;;
6197;SDS011;3132;42.622;23.328;2022-10-17T00:09:41;12.03;;;11.13;;
6197;SDS011;3132;42.622;23.328;2022-10-17T00:12:07;12.23;;;11.33;;
6197;SDS011;3132;42.622;23.328;2022-10-17T00:14:32;12.37;;;11.57;;
6197;SDS011;3132;42.622;23.328;2022-10-17T00:16:58;11.83;;;11.13;;
6197;SDS011;3132;42.622;23.328;2022-10-17T00:19:24;11.73;;;11.10;;
6197;SDS011;3132;42.622;23.328;2022-10-17T00:21:49;11.93;;;11.13;;
6197;SDS011;3132;42.622;23.328;2022-10-17T00:24:15;11.70;;;10.90;;
6197;SDS011;3132;42.622;23.328;2022-10-17T00:26:40;11.70;;;10.77;;
6197;SDS011;3132;42.622;23.328;2022-10-17T00:29:05;12.63;;;11.83;;
6197;SDS011;3132;42.622;23.328;2022-10-17T00:31:31;10.90;;;10.30;;
6197;SDS011;3132;42.622;23.328;2022-10-17T00:33:56;12.93;;;12.03;;
6197;SDS011;3132;42.622;23.328;2022-10-17T00:36:23;12.43;;;11.63;;
6197;SDS011;3132;42.622;23.328;2022-10-17T00:38:56;12.07;;;11.10;;
6197;SDS011;3132;42.622;23.328;2022-10-17T00:41:25;13.67;;;12.77;;
6197;SDS011;3132;42.622;23.328;2022-10-17T00:46:58;11.63;;;10.87;;
6197;SDS011;3132;42.622;23.328;2022-10-17T00:49:29;12.70;;;11.90;;
6197;SDS011;3132;42.622;23.328;2022-10-17T00:52:00;12.40;;;11.27;;
6197;SDS011;3132;42.622;23.328;2022-10-17T00:54:31;12.93;;;11.70;;
6197;SDS011;3132;42.622;23.328;2022-10-17T00:57:01;12.43;;;11.63;;
6197;SDS011;3132;42.622;23.328;2022-10-17T00:59:27;13.00;;;12.00;;
6197;SDS011;3132;42.622;23.328;2022-10-17T01:02:11;13.20;;;12.17;;
6197;SDS011;3132;42.622;23.328;2022-10-17T01:04:39;13.57;;;12.60;;
6197;SDS011;3132;42.622;23.328;2022-10-17T01:07:07;16.40;;;13.13;;
6197;SDS011;3132;42.622;23.328;2022-10-17T01:09:33;13.67;;;12.50;;
6197;SDS011;3132;42.622;23.328;2022-10-17T01:14:52;13.47;;;12.40;;
6197;SDS011;3132;42.622;23.328;2022-10-17T01:26:35;12.27;;;11.50;;
6197;SDS011;3132;42.622;23.328;2022-10-17T01:34:27;12.37;;;11.27;;
6197;SDS011;3132;42.622;23.328;2022-10-17T01:37:18;12.90;;;12.00;;
6197;SDS011;3132;42.622;23.328;2022-10-17T01:43:02;12.43;;;11.50;;
6197;SDS011;3132;42.622;23.328;2022-10-17T01:45:32;12.90;;;11.90;;
6197;SDS011;3132;42.622;23.328;2022-10-17T01:48:10;12.20;;;11.30;;
6197;SDS011;3132;42.622;23.328;2022-10-17T01:50:40;11.37;;;10.57;;
6197;SDS011;3132;42.622;23.328;2022-10-17T01:53:12;12.03;;;11.30;;
6197;SDS011;3132;42.622;23.328;2022-10-17T01:55:43;12.10;;;11.30;;
6197;SDS011;3132;42.622;23.328;2022-10-17T02:00:48;12.00;;;11.10;;
6197;SDS011;3132;42.622;23.328;2022-10-17T02:03:15;11.40;;;10.73;;
6197;SDS011;3132;42.622;23.328;2022-10-17T02:05:43;10.93;;;10.23;;
6197;SDS011;3132;42.622;23.328;2022-10-17T02:08:09;11.90;;;11.17;;
6197;SDS011;3132;42.622;23.328;2022-10-17T02:27:16;9.37;;;8.97;;
6197;SDS011;3132;42.622;23.328;2022-10-17T02:30:14;10.00;;;9.03;;
6197;SDS011;3132;42.622;23.328;2022-10-17T02:33:02;9.77;;;9.27;;
6197;SDS011;3132;42.622;23.328;2022-10-17T02:35:37;10.00;;;9.33;;
6197;SDS011;3132;42.622;23.328;2022-10-17T02:38:06;9.57;;;9.07;;
6197;SDS011;3132;42.622;23.328;2022-10-17T02:40:34;9.27;;;8.83;;
6197;SDS011;3132;42.622;23.328;2022-10-17T02:43:01;9.67;;;9.17;;
6197;SDS011;3132;42.622;23.328;2022-10-17T02:45:27;9.07;;;8.67;;
6197;SDS011;3132;42.622;23.328;2022-10-17T02:50:52;8.47;;;8.13;;
6197;SDS011;3132;42.622;23.328;2022-10-17T02:53:31;8.67;;;8.13;;
6197;SDS011;3132;42.622;23.328;2022-10-17T02:56:05;8.77;;;8.33;;
6197;SDS011;3132;42.622;23.328;2022-10-17T02:58:38;9.40;;;8.90;;
6197;SDS011;3132;42.622;23.328;2022-10-17T03:01:06;8.70;;;8.30;;
6197;SDS011;3132;42.622;23.328;2022-10-17T03:03:32;9.23;;;8.83;;
6197;SDS011;3132;42.622;23.328;2022-10-17T03:05:58;10.30;;;9.70;;
6197;SDS011;3132;42.622;23.328;2022-10-17T03:08:23;9.60;;;9.20;;
6197;SDS011;3132;42.622;23.328;2022-10-17T03:10:49;9.93;;;9.53;;
6197;SDS011;3132;42.622;23.328;2022-10-17T03:13:15;9.53;;;9.13;;
6197;SDS011;3132;42.622;23.328;2022-10-17T03:15:41;9.37;;;8.97;;
6197;SDS011;3132;42.622;23.328;2022-10-17T03:18:06;8.97;;;8.57;;
6197;SDS011;3132;42.622;23.328;2022-10-17T03:20:32;8.97;;;8.47;;
6197;SDS011;3132;42.622;23.328;2022-10-17T03:22:57;10.20;;;9.60;;
6197;SDS011;3132;42.622;23.328;2022-10-17T03:25:23;10.33;;;9.50;;
6197;SDS011;3132;42.622;23.328;2022-10-17T03:27:48;10.30;;;9.80;;
6197;SDS011;3132;42.622;23.328;2022-10-17T03:30:14;9.80;;;9.07;;
6197;SDS011;3132;42.622;23.328;2022-10-17T03:32:39;10.33;;;9.73;;
6197;SDS011;3132;42.622;23.328;2022-10-17T03:35:05;11.37;;;10.57;;
6197;SDS011;3132;42.622;23.328;2022-10-17T03:37:30;12.17;;;10.90;;
6197;SDS011;3132;42.622;23.328;2022-10-17T03:39:56;13.80;;;12.57;;
6197;SDS011;3132;42.622;23.328;2022-10-17T03:42:21;13.40;;;12.27;;
6197;SDS011;3132;42.622;23.328;2022-10-17T03:44:47;12.30;;;11.30;;
6197;SDS011;3132;42.622;23.328;2022-10-17T03:47:12;11.60;;;10.90;;
6197;SDS011;3132;42.622;23.328;2022-10-17T03:49:37;12.50;;;11.40;;
6197;SDS011;3132;42.622;23.328;2022-10-17T03:52:03;13.00;;;10.93;;
6197;SDS011;3132;42.622;23.328;2022-10-17T03:54:28;12.27;;;11.47;;
6197;SDS011;3132;42.622;23.328;2022-10-17T03:56:54;11.33;;;10.50;;
6197;SDS011;3132;42.622;23.328;2022-10-17T03:59:19;11.80;;;10.90;;
6197;SDS011;3132;42.622;23.328;2022-10-17T04:01:45;10.90;;;10.27;;
6197;SDS011;3132;42.622;23.328;2022-10-17T04:04:10;10.37;;;9.63;;
6197;SDS011;3132;42.622;23.328;2022-10-17T04:06:36;10.53;;;9.93;;
6197;SDS011;3132;42.622;23.328;2022-10-17T04:09:02;11.03;;;10.33;;
6197;SDS011;3132;42.622;23.328;2022-10-17T04:11:28;10.93;;;10.23;;
6197;SDS011;3132;42.622;23.328;2022-10-17T04:13:54;11.00;;;10.20;;
6197;SDS011;3132;42.622;23.328;2022-10-17T04:16:21;10.67;;;9.93;;
6197;SDS011;3132;42.622;23.328;2022-10-17T04:18:51;11.00;;;10.20;;
6197;SDS011;3132;42.622;23.328;2022-10-17T04:21:20;13.27;;;12.03;;
6197;SDS011;3132;42.622;23.328;2022-10-17T04:23:46;12.37;;;11.47;;
6197;SDS011;3132;42.622;23.328;2022-10-17T04:26:11;12.80;;;11.73;;
6197;SDS011;3132;42.622;23.328;2022-10-17T04:28:37;13.07;;;11.90;;
6197;SDS011;3132;42.622;23.328;2022-10-17T04:31:06;13.20;;;12.10;;
6197;SDS011;3132;42.622;23.328;2022-10-17T04:33:35;12.80;;;11.27;;
6197;SDS011;3132;42.622;23.328;2022-10-17T04:36:02;13.77;;;12.70;;
6197;SDS011;3132;42.622;23.328;2022-10-17T04:38:30;13.90;;;12.77;;
6197;SDS011;3132;42.622;23.328;2022-10-17T04:40:57;14.77;;;13.40;;
6197;SDS011;3132;42.622;23.328;2022-10-17T04:43:24;14.77;;;13.47;;
6197;SDS011;3132;42.622;23.328;2022-10-17T04:45:49;14.83;;;13.37;;
6197;SDS011;3132;42.622;23.328;2022-10-17T04:48:14;15.50;;;13.40;;
6197;SDS011;3132;42.622;23.328;2022-10-17T04:50:40;12.90;;;11.60;;
6197;SDS011;3132;42.622;23.328;2022-10-17T04:53:05;12.57;;;11.30;;
6197;SDS011;3132;42.622;23.328;2022-10-17T04:55:30;13.07;;;11.90;;
6197;SDS011;3132;42.622;23.328;2022-10-17T04:57:56;13.07;;;11.80;;
6197;SDS011;3132;42.622;23.328;2022-10-17T05:00:21;13.40;;;12.50;;
6197;SDS011;3132;42.622;23.328;2022-10-17T05:02:46;12.37;;;11.47;;
6197;SDS011;3132;42.622;23.328;2022-10-17T05:05:12;13.97;;;12.60;;
6197;SDS011;3132;42.622;23.328;2022-10-17T05:07:40;14.03;;;12.83;;
6197;SDS011;3132;42.622;23.328;2022-10-17T05:10:06;13.70;;;12.53;;
6197;SDS011;3132;42.622;23.328;2022-10-17T05:12:32;15.23;;;13.73;;
6197;SDS011;3132;42.622;23.328;2022-10-17T05:14:57;13.77;;;12.60;;
6197;SDS011;3132;42.622;23.328;2022-10-17T05:17:23;13.97;;;12.73;;
6197;SDS011;3132;42.622;23.328;2022-10-17T05:19:48;14.23;;;13.10;;
6197;SDS011;3132;42.622;23.328;2022-10-17T05:22:14;15.17;;;12.67;;
6197;SDS011;3132;42.622;23.328;2022-10-17T05:24:39;16.03;;;13.70;;
6197;SDS011;3132;42.622;23.328;2022-10-17T05:27:04;17.83;;;14.67;;
6197;SDS011;3132;42.622;23.328;2022-10-17T05:29:30;14.23;;;12.73;;
6197;SDS011;3132;42.622;23.328;2022-10-17T05:31:55;14.87;;;13.50;;
6197;SDS011;3132;42.622;23.328;2022-10-17T05:34:21;16.13;;;14.50;;
6197;SDS011;3132;42.622;23.328;2022-10-17T05:36:46;19.80;;;14.73;;
6197;SDS011;3132;42.622;23.328;2022-10-17T05:39:12;16.80;;;14.80;;
6197;SDS011;3132;42.622;23.328;2022-10-17T05:41:39;15.67;;;14.17;;
6197;SDS011;3132;42.622;23.328;2022-10-17T05:44:04;18.93;;;14.80;;
6197;SDS011;3132;42.622;23.328;2022-10-17T05:46:30;15.57;;;13.90;;
6197;SDS011;3132;42.622;23.328;2022-10-17T05:48:55;19.80;;;15.00;;
6197;SDS011;3132;42.622;23.328;2022-10-17T05:51:21;16.23;;;14.80;;
6197;SDS011;3132;42.622;23.328;2022-10-17T05:53:46;16.67;;;15.03;;
6197;SDS011;3132;42.622;23.328;2022-10-17T05:56:12;16.70;;;14.30;;
6197;SDS011;3132;42.622;23.328;2022-10-17T05:58:39;18.40;;;14.47;;
6197;SDS011;3132;42.622;23.328;2022-10-17T06:01:09;15.23;;;13.87;;
6197;SDS011;3132;42.622;23.328;2022-10-17T06:03:36;20.93;;;16.07;;
6197;SDS011;3132;42.622;23.328;2022-10-17T06:06:05;15.53;;;14.20;;
6197;SDS011;3132;42.622;23.328;2022-10-17T06:08:32;15.70;;;14.17;;
6197;SDS011;3132;42.622;23.328;2022-10-17T06:10:58;14.80;;;13.47;;
6197;SDS011;3132;42.622;23.328;2022-10-17T06:13:23;18.67;;;15.70;;
6197;SDS011;3132;42.622;23.328;2022-10-17T06:15:49;17.73;;;15.00;;
6197;SDS011;3132;42.622;23.328;2022-10-17T06:18:14;19.07;;;17.13;;
6197;SDS011;3132;42.622;23.328;2022-10-17T06:20:39;26.30;;;17.97;;
6197;SDS011;3132;42.622;23.328;2022-10-17T06:23:05;22.37;;;17.10;;
6197;SDS011;3132;42.622;23.328;2022-10-17T06:25:31;23.70;;;17.13;;
6197;SDS011;3132;42.622;23.328;2022-10-17T06:27:57;22.50;;;18.17;;
6197;SDS011;3132;42.622;23.328;2022-10-17T06:30:23;22.40;;;18.07;;
6197;SDS011;3132;42.622;23.328;2022-10-17T06:32:48;22.03;;;16.57;;
6197;SDS011;3132;42.622;23.328;2022-10-17T06:35:15;22.33;;;17.27;;
6197;SDS011;3132;42.622;23.328;2022-10-17T06:37:40;18.83;;;16.83;;
6197;SDS011;3132;42.622;23.328;2022-10-17T06:40:06;19.33;;;17.17;;
6197;SDS011;3132;42.622;23.328;2022-10-17T06:42:33;22.63;;;16.87;;
6197;SDS011;3132;42.622;23.328;2022-10-17T06:44:58;18.90;;;17.00;;
6197;SDS011;3132;42.622;23.328;2022-10-17T06:47:24;19.77;;;17.80;;
6197;SDS011;3132;42.622;23.328;2022-10-17T06:49:49;20.77;;;18.43;;
6197;SDS011;3132;42.622;23.328;2022-10-17T06:52:14;21.10;;;18.60;;
6197;SDS011;3132;42.622;23.328;2022-10-17T06:54:41;22.57;;;17.80;;
6197;SDS011;3132;42.622;23.328;2022-10-17T06:57:07;22.57;;;17.90;;
6197;SDS011;3132;42.622;23.328;2022-10-17T06:59:32;19.47;;;17.60;;
6197;SDS011;3132;42.622;23.328;2022-10-17T07:01:59;20.50;;;18.20;;
6197;SDS011;3132;42.622;23.328;2022-10-17T07:04:25;26.70;;;18.73;;
6197;SDS011;3132;42.622;23.328;2022-10-17T07:06:51;19.97;;;17.47;;
6197;SDS011;3132;42.622;23.328;2022-10-17T07:09:16;21.90;;;17.67;;
6197;SDS011;3132;42.622;23.328;2022-10-17T07:11:42;19.67;;;16.70;;
6197;SDS011;3132;42.622;23.328;2022-10-17T07:14:08;20.37;;;17.33;;
6197;SDS011;3132;42.622;23.328;2022-10-17T07:16:34;23.83;;;17.43;;
6197;SDS011;3132;42.622;23.328;2022-10-17T07:18:59;28.03;;;17.73;;
6197;SDS011;3132;42.622;23.328;2022-10-17T07:21:24;22.27;;;18.90;;
6197;SDS011;3132;42.622;23.328;2022-10-17T07:23:50;22.13;;;16.57;;
6197;SDS011;3132;42.622;23.328;2022-10-17T07:26:16;20.20;;;17.47;;
6197;SDS011;3132;42.622;23.328;2022-10-17T07:28:43;19.23;;;17.00;;
6197;SDS011;3132;42.622;23.328;2022-10-17T07:31:12;17.43;;;15.63;;
6197;SDS011;3132;42.622;23.328;2022-10-17T07:33:40;17.50;;;15.90;;
6197;SDS011;3132;42.622;23.328;2022-10-17T07:36:06;18.43;;;14.33;;
6197;SDS011;3132;42.622;23.328;2022-10-17T07:38:32;16.20;;;14.60;;
6197;SDS011;3132;42.622;23.328;2022-10-17T07:41:00;16.03;;;14.20;;
6197;SDS011;3132;42.622;23.328;2022-10-17T07:43:27;16.97;;;15.23;;
6197;SDS011;3132;42.622;23.328;2022-10-17T07:45:53;14.20;;;12.83;;
6197;SDS011;3132;42.622;23.328;2022-10-17T07:48:19;15.07;;;13.53;;
6197;SDS011;3132;42.622;23.328;2022-10-17T07:50:46;14.50;;;13.17;;
6197;SDS011;3132;42.622;23.328;2022-10-17T07:53:12;13.07;;;12.00;;
6197;SDS011;3132;42.622;23.328;2022-10-17T07:55:38;14.17;;;12.80;;
6197;SDS011;3132;42.622;23.328;2022-10-17T07:58:04;14.10;;;12.93;;
6197;SDS011;3132;42.622;23.328;2022-10-17T08:00:30;12.60;;;11.40;;
6197;SDS011;3132;42.622;23.328;2022-10-17T08:02:55;12.80;;;11.60;;
6197;SDS011;3132;42.622;23.328;2022-10-17T08:05:21;16.23;;;13.30;;
6197;SDS011;3132;42.622;23.328;2022-10-17T08:07:46;14.37;;;13.13;;
6197;SDS011;3132;42.622;23.328;2022-10-17T08:10:12;12.90;;;11.67;;
6197;SDS011;3132;42.622;23.328;2022-10-17T08:12:38;13.47;;;12.37;;
6197;SDS011;3132;42.622;23.328;2022-10-17T08:15:04;12.90;;;11.63;;
6197;SDS011;3132;42.622;23.328;2022-10-17T08:17:30;11.87;;;10.97;;
6197;SDS011;3132;42.622;23.328;2022-10-17T08:19:56;15.20;;;13.60;;
6197;SDS011;3132;42.622;23.328;2022-10-17T08:22:21;12.93;;;11.90;;
6197;SDS011;3132;42.622;23.328;2022-10-17T08:24:46;13.57;;;12.17;;
6197;SDS011;3132;42.622;23.328;2022-10-17T08:27:12;12.67;;;11.47;;
6197;SDS011;3132;42.622;23.328;2022-10-17T08:29:40;12.47;;;11.57;;
6197;SDS011;3132;42.622;23.328;2022-10-17T08:32:06;13.53;;;12.47;;
6197;SDS011;3132;42.622;23.328;2022-10-17T08:34:33;16.60;;;12.27;;
6197;SDS011;3132;42.622;23.328;2022-10-17T08:36:59;14.13;;;12.90;;
6197;SDS011;3132;42.622;23.328;2022-10-17T08:39:24;13.70;;;12.53;;
6197;SDS011;3132;42.622;23.328;2022-10-17T08:44:24;13.87;;;12.70;;
6197;SDS011;3132;42.622;23.328;2022-10-17T08:47:26;13.20;;;12.00;;
6197;SDS011;3132;42.622;23.328;2022-10-17T08:50:00;11.83;;;10.07;;
6197;SDS011;3132;42.622;23.328;2022-10-17T08:55:13;11.37;;;10.47;;
6197;SDS011;3132;42.622;23.328;2022-10-17T08:57:47;11.17;;;10.43;;
6197;SDS011;3132;42.622;23.328;2022-10-17T09:00:21;11.17;;;10.37;;
6197;SDS011;3132;42.622;23.328;2022-10-17T09:08:43;9.97;;;9.27;;
6197;SDS011;3132;42.622;23.328;2022-10-17T09:18:57;10.80;;;10.00;;
6197;SDS011;3132;42.622;23.328;2022-10-17T09:21:34;10.47;;;9.60;;
6197;SDS011;3132;42.622;23.328;2022-10-17T09:24:17;11.93;;;11.13;;
6197;SDS011;3132;42.622;23.328;2022-10-17T09:26:49;12.17;;;11.27;;
6197;SDS011;3132;42.622;23.328;2022-10-17T09:29:22;11.50;;;10.57;;
6197;SDS011;3132;42.622;23.328;2022-10-17T09:31:57;12.03;;;10.83;;
6197;SDS011;3132;42.622;23.328;2022-10-17T09:34:53;10.30;;;9.63;;
6197;SDS011;3132;42.622;23.328;2022-10-17T09:37:21;10.57;;;9.67;;
6197;SDS011;3132;42.622;23.328;2022-10-17T09:39:54;10.40;;;9.80;;
6197;SDS011;3132;42.622;23.328;2022-10-17T09:42:19;11.40;;;10.60;;
6197;SDS011;3132;42.622;23.328;2022-10-17T09:44:55;12.00;;;9.63;;
6197;SDS011;3132;42.622;23.328;2022-10-17T09:47:49;11.17;;;10.23;;
6197;SDS011;3132;42.622;23.328;2022-10-17T09:50:25;10.50;;;9.73;;
6197;SDS011;3132;42.622;23.328;2022-10-17T09:52:52;9.87;;;9.23;;
6197;SDS011;3132;42.622;23.328;2022-10-17T09:58:06;9.90;;;9.10;;
6197;SDS011;3132;42.622;23.328;2022-10-17T10:00:37;10.43;;;9.73;;
6197;SDS011;3132;42.622;23.328;2022-10-17T10:05:33;9.57;;;8.87;;
6197;SDS011;3132;42.622;23.328;2022-10-17T10:08:02;10.17;;;9.60;;
6197;SDS011;3132;42.622;23.328;2022-10-17T10:10:39;9.37;;;8.67;;
6197;SDS011;3132;42.622;23.328;2022-10-17T10:13:25;10.47;;;9.47;;
6197;SDS011;3132;42.622;23.328;2022-10-17T10:15:51;10.10;;;9.50;;
6197;SDS011;3132;42.622;23.328;2022-10-17T10:18:30;10.00;;;9.30;;
6197;SDS011;3132;42.622;23.328;2022-10-17T10:23:30;11.10;;;10.17;;
6197;SDS011;3132;42.622;23.328;2022-10-17T10:28:24;9.90;;;9.10;;
6197;SDS011;3132;42.622;23.328;2022-10-17T10:30:52;10.50;;;9.83;;
6197;SDS011;3132;42.622;23.328;2022-10-17T10:33:28;10.00;;;9.40;;
6197;SDS011;3132;42.622;23.328;2022-10-17T10:35:55;10.13;;;9.23;;
6197;SDS011;3132;42.622;23.328;2022-10-17T10:38:25;10.60;;;10.00;;
6197;SDS011;3132;42.622;23.328;2022-10-17T10:40:51;10.77;;;9.97;;
6197;SDS011;3132;42.622;23.328;2022-10-17T10:45:53;9.87;;;9.17;;
6197;SDS011;3132;42.622;23.328;2022-10-17T10:53:49;10.43;;;9.70;;
6197;SDS011;3132;42.622;23.328;2022-10-17T10:58:52;9.33;;;8.73;;
6197;SDS011;3132;42.622;23.328;2022-10-17T11:04:01;9.47;;;9.00;;
6197;SDS011;3132;42.622;23.328;2022-10-17T11:06:30;10.00;;;9.40;;
6197;SDS011;3132;42.622;23.328;2022-10-17T11:11:31;9.73;;;8.90;;
6197;SDS011;3132;42.622;23.328;2022-10-17T11:14:15;10.33;;;9.63;;
6197;SDS011;3132;42.622;23.328;2022-10-17T11:16:53;8.80;;;8.30;;
6197;SDS011;3132;42.622;23.328;2022-10-17T11:19:30;9.93;;;9.40;;
6197;SDS011;3132;42.622;23.328;2022-10-17T11:25:41;9.87;;;9.17;;
6197;SDS011;3132;42.622;23.328;2022-10-17T11:27:54;9.90;;;9.07;;
6197;SDS011;3132;42.622;23.328;2022-10-17T11:30:19;10.27;;;9.30;;
6197;SDS011;3132;42.622;23.328;2022-10-17T11:32:48;9.57;;;8.97;;
6197;SDS011;3132;42.622;23.328;2022-10-17T11:40:28;9.07;;;8.50;;
6197;SDS011;3132;42.622;23.328;2022-10-17T11:43:00;9.40;;;8.80;;
6197;SDS011;3132;42.622;23.328;2022-10-17T11:45:33;9.00;;;8.50;;
6197;SDS011;3132;42.622;23.328;2022-10-17T11:48:03;9.53;;;8.70;;
6197;SDS011;3132;42.622;23.328;2022-10-17T11:50:37;9.27;;;8.77;;
6197;SDS011;3132;42.622;23.328;2022-10-17T11:53:11;8.43;;;7.93;;
6197;SDS011;3132;42.622;23.328;2022-10-17T11:55:38;9.30;;;8.80;;
6197;SDS011;3132;42.622;23.328;2022-10-17T12:05:56;8.60;;;8.10;;
6197;SDS011;3132;42.622;23.328;2022-10-17T12:13:58;9.30;;;8.70;;
6197;SDS011;3132;42.622;23.328;2022-10-17T12:21:24;8.70;;;8.10;;
6197;SDS011;3132;42.622;23.328;2022-10-17T12:23:50;8.63;;;8.13;;
6197;SDS011;3132;42.622;23.328;2022-10-17T12:26:24;9.67;;;9.17;;
6197;SDS011;3132;42.622;23.328;2022-10-17T12:28:52;9.17;;;8.37;;
6197;SDS011;3132;42.622;23.328;2022-10-17T12:38:52;9.13;;;8.63;;
6197;SDS011;3132;42.622;23.328;2022-10-17T12:55:14;9.67;;;9.17;;
6197;SDS011;3132;42.622;23.328;2022-10-17T13:00:30;9.67;;;8.97;;
6197;SDS011;3132;42.622;23.328;2022-10-17T13:03:11;8.97;;;8.47;;
6197;SDS011;3132;42.622;23.328;2022-10-17T13:05:50;8.80;;;8.20;;
6197;SDS011;3132;42.622;23.328;2022-10-17T13:08:22;9.30;;;8.80;;
6197;SDS011;3132;42.622;23.328;2022-10-17T13:10:52;9.63;;;9.03;;
6197;SDS011;3132;42.622;23.328;2022-10-17T13:13:20;9.47;;;8.87;;
6197;SDS011;3132;42.622;23.328;2022-10-17T13:15:49;9.80;;;9.20;;
6197;SDS011;3132;42.622;23.328;2022-10-17T13:18:21;9.40;;;8.90;;
6197;SDS011;3132;42.622;23.328;2022-10-17T13:20:55;9.30;;;8.60;;
6197;SDS011;3132;42.622;23.328;2022-10-17T13:23:36;9.73;;;9.17;;
6197;SDS011;3132;42.622;23.328;2022-10-17T13:28:35;9.17;;;8.40;;
6197;SDS011;3132;42.622;23.328;2022-10-17T13:31:00;10.00;;;9.30;;
6197;SDS011;3132;42.622;23.328;2022-10-17T13:33:39;9.90;;;9.30;;
6197;SDS011;3132;42.622;23.328;2022-10-17T13:36:05;9.33;;;8.53;;
6197;SDS011;3132;42.622;23.328;2022-10-17T13:38:33;9.03;;;8.53;;
6197;SDS011;3132;42.622;23.328;2022-10-17T13:41:00;8.63;;;8.23;;
6197;SDS011;3132;42.622;23.328;2022-10-17T13:43:27;9.63;;;8.93;;
6197;SDS011;3132;42.622;23.328;2022-10-17T13:45:55;9.37;;;8.73;;
6197;SDS011;3132;42.622;23.328;2022-10-17T13:48:27;9.80;;;9.20;;
6197;SDS011;3132;42.622;23.328;2022-10-17T13:50:56;10.53;;;9.83;;
6197;SDS011;3132;42.622;23.328;2022-10-17T13:53:31;9.70;;;8.30;;
6197;SDS011;3132;42.622;23.328;2022-10-17T13:56:02;7.97;;;7.33;;
6197;SDS011;3132;42.622;23.328;2022-10-17T13:58:39;9.07;;;8.27;;
6197;SDS011;3132;42.622;23.328;2022-10-17T14:01:07;8.80;;;8.30;;
6197;SDS011;3132;42.622;23.328;2022-10-17T14:03:33;9.00;;;8.40;;
6197;SDS011;3132;42.622;23.328;2022-10-17T14:06:03;8.80;;;8.20;;
6197;SDS011;3132;42.622;23.328;2022-10-17T14:08:34;9.03;;;8.33;;
6197;SDS011;3132;42.622;23.328;2022-10-17T14:11:01;9.43;;;8.73;;
6197;SDS011;3132;42.622;23.328;2022-10-17T14:13:37;10.20;;;9.50;;
6197;SDS011;3132;42.622;23.328;2022-10-17T14:16:02;9.67;;;9.07;;
6197;SDS011;3132;42.622;23.328;2022-10-17T14:18:33;9.37;;;8.77;;
6197;SDS011;3132;42.622;23.328;2022-10-17T14:21:00;8.77;;;8.17;;
6197;SDS011;3132;42.622;23.328;2022-10-17T14:28:34;8.60;;;8.10;;
6197;SDS011;3132;42.622;23.328;2022-10-17T14:31:19;10.33;;;9.43;;
6197;SDS011;3132;42.622;23.328;2022-10-17T14:33:49;9.53;;;8.27;;
6197;SDS011;3132;42.622;23.328;2022-10-17T14:36:16;9.70;;;9.03;;
6197;SDS011;3132;42.622;23.328;2022-10-17T14:38:47;10.40;;;9.70;;
6197;SDS011;3132;42.622;23.328;2022-10-17T14:41:25;11.80;;;10.60;;
6197;SDS011;3132;42.622;23.328;2022-10-17T14:43:59;10.67;;;9.87;;
6197;SDS011;3132;42.622;23.328;2022-10-17T14:46:27;9.60;;;9.00;;
6197;SDS011;3132;42.622;23.328;2022-10-17T14:49:00;9.63;;;9.07;;
6197;SDS011;3132;42.622;23.328;2022-10-17T14:51:31;9.77;;;9.23;;
6197;SDS011;3132;42.622;23.328;2022-10-17T14:56:40;9.30;;;8.77;;
6197;SDS011;3132;42.622;23.328;2022-10-17T14:59:06;10.43;;;9.63;;
6197;SDS011;3132;42.622;23.328;2022-10-17T15:01:35;9.50;;;8.93;;
6197;SDS011;3132;42.622;23.328;2022-10-17T15:04:00;9.17;;;8.57;;
6197;SDS011;3132;42.622;23.328;2022-10-17T15:06:27;10.63;;;9.73;;
6197;SDS011;3132;42.622;23.328;2022-10-17T15:08:55;10.70;;;9.87;;
6197;SDS011;3132;42.622;23.328;2022-10-17T15:11:21;10.23;;;9.53;;
6197;SDS011;3132;42.622;23.328;2022-10-17T15:13:47;12.33;;;11.23;;
6197;SDS011;3132;42.622;23.328;2022-10-17T15:16:14;10.17;;;9.57;;
6197;SDS011;3132;42.622;23.328;2022-10-17T15:18:43;10.90;;;9.93;;
6197;SDS011;3132;42.622;23.328;2022-10-17T15:21:11;10.53;;;9.67;;
6197;SDS011;3132;42.622;23.328;2022-10-17T15:23:37;10.07;;;9.27;;
6197;SDS011;3132;42.622;23.328;2022-10-17T15:26:09;9.77;;;8.90;;
6197;SDS011;3132;42.622;23.328;2022-10-17T15:28:38;9.00;;;8.40;;
6197;SDS011;3132;42.622;23.328;2022-10-17T15:31:04;8.43;;;8.03;;
6197;SDS011;3132;42.622;23.328;2022-10-17T15:33:29;9.23;;;8.70;;
6197;SDS011;3132;42.622;23.328;2022-10-17T15:35:54;9.63;;;9.03;;
6197;SDS011;3132;42.622;23.328;2022-10-17T15:38:20;10.67;;;9.80;;
6197;SDS011;3132;42.622;23.328;2022-10-17T15:40:45;10.83;;;10.20;;
6197;SDS011;3132;42.622;23.328;2022-10-17T15:43:14;10.77;;;10.07;;
6197;SDS011;3132;42.622;23.328;2022-10-17T15:45:40;11.17;;;10.07;;
6197;SDS011;3132;42.622;23.328;2022-10-17T15:48:05;10.77;;;9.90;;
6197;SDS011;3132;42.622;23.328;2022-10-17T15:50:31;10.83;;;9.93;;
6197;SDS011;3132;42.622;23.328;2022-10-17T15:52:57;12.90;;;10.07;;
6197;SDS011;3132;42.622;23.328;2022-10-17T15:55:24;10.93;;;10.00;;
6197;SDS011;3132;42.622;23.328;2022-10-17T15:57:49;10.17;;;9.47;;
6197;SDS011;3132;42.622;23.328;2022-10-17T16:00:19;16.67;;;11.77;;
6197;SDS011;3132;42.622;23.328;2022-10-17T16:02:48;12.43;;;11.07;;
6197;SDS011;3132;42.622;23.328;2022-10-17T16:05:15;10.13;;;9.43;;
6197;SDS011;3132;42.622;23.328;2022-10-17T16:07:53;13.70;;;12.43;;
6197;SDS011;3132;42.622;23.328;2022-10-17T16:10:19;15.03;;;12.57;;
6197;SDS011;3132;42.622;23.328;2022-10-17T16:12:46;14.30;;;13.17;;
6197;SDS011;3132;42.622;23.328;2022-10-17T16:15:21;13.50;;;12.30;;
6197;SDS011;3132;42.622;23.328;2022-10-17T16:17:50;13.87;;;12.67;;
6197;SDS011;3132;42.622;23.328;2022-10-17T16:20:17;13.27;;;12.07;;
6197;SDS011;3132;42.622;23.328;2022-10-17T16:22:44;14.57;;;12.73;;
6197;SDS011;3132;42.622;23.328;2022-10-17T16:25:31;16.13;;;12.63;;
6197;SDS011;3132;42.622;23.328;2022-10-17T16:27:56;13.70;;;12.33;;
6197;SDS011;3132;42.622;23.328;2022-10-17T16:30:23;14.20;;;12.70;;
6197;SDS011;3132;42.622;23.328;2022-10-17T16:32:51;13.50;;;12.20;;
6197;SDS011;3132;42.622;23.328;2022-10-17T16:35:19;11.27;;;10.33;;
6197;SDS011;3132;42.622;23.328;2022-10-17T16:37:47;13.47;;;12.27;;
6197;SDS011;3132;42.622;23.328;2022-10-17T16:40:13;13.07;;;11.97;;
6197;SDS011;3132;42.622;23.328;2022-10-17T16:42:39;14.43;;;13.07;;
6197;SDS011;3132;42.622;23.328;2022-10-17T16:45:05;15.23;;;13.67;;
6197;SDS011;3132;42.622;23.328;2022-10-17T16:47:30;13.20;;;12.00;;
6197;SDS011;3132;42.622;23.328;2022-10-17T16:49:56;13.30;;;12.10;;
6197;SDS011;3132;42.622;23.328;2022-10-17T16:52:21;13.17;;;11.77;;
6197;SDS011;3132;42.622;23.328;2022-10-17T16:54:46;12.33;;;11.17;;
6197;SDS011;3132;42.622;23.328;2022-10-17T16:57:12;11.90;;;10.90;;
6197;SDS011;3132;42.622;23.328;2022-10-17T16:59:37;11.43;;;10.63;;
6197;SDS011;3132;42.622;23.328;2022-10-17T17:02:02;13.53;;;12.23;;
6197;SDS011;3132;42.622;23.328;2022-10-17T17:04:28;15.97;;;14.57;;
6197;SDS011;3132;42.622;23.328;2022-10-17T17:06:54;15.00;;;13.60;;
6197;SDS011;3132;42.622;23.328;2022-10-17T17:09:19;14.83;;;13.53;;
6197;SDS011;3132;42.622;23.328;2022-10-17T17:11:44;13.73;;;12.43;;
6197;SDS011;3132;42.622;23.328;2022-10-17T17:14:10;12.03;;;11.17;;
6197;SDS011;3132;42.622;23.328;2022-10-17T17:16:36;12.57;;;11.57;;
6197;SDS011;3132;42.622;23.328;2022-10-17T17:19:03;11.03;;;10.33;;
6197;SDS011;3132;42.622;23.328;2022-10-17T17:21:30;9.87;;;9.20;;
6197;SDS011;3132;42.622;23.328;2022-10-17T17:23:57;10.57;;;9.93;;